createdAt,value
2023-02-11T00:04:08.372Z,103484.41
2023-02-11T00:09:12.290Z,103468.13
2023-02-11T00:14:15.365Z,103451.53
2023-02-11T00:19:20.409Z,103458.47
2023-02-11T00:24:23.368Z,103470.28
2023-02-11T00:29:26.539Z,103470.09
2023-02-11T00:34:30.944Z,103479.50
2023-02-11T00:39:34.057Z,103484.25
2023-02-11T00:44:39.475Z,103466.88
2023-02-11T00:49:43.740Z,103453.84
2023-02-11T00:54:46.779Z,103458.47
2023-02-11T00:59:50.662Z,103460.91
2023-02-11T01:04:56.455Z,103459.84
2023-02-11T01:09:59.595Z,103460.47
2023-02-11T01:15:07.263Z,103454.34
2023-02-11T01:20:16.926Z,103448.22
2023-02-11T01:25:20.032Z,103459.16
2023-02-11T01:30:23.064Z,103437.66
2023-02-11T01:35:27.432Z,103417.53
2023-02-11T01:40:30.361Z,103420.56
2023-02-11T01:46:01.891Z,103423.66
2023-02-11T01:51:11.910Z,103431.78
2023-02-11T01:56:33.654Z,103441.78
2023-02-11T02:01:41.878Z,103436.72
2023-02-11T02:06:51.906Z,103411.59
2023-02-11T02:11:55.344Z,103456.06
2023-02-11T02:16:58.445Z,103435.69
2023-02-11T02:22:29.528Z,103440.09
2023-02-11T02:27:43.314Z,103420.63
2023-02-11T02:33:20.550Z,103425.88
2023-02-11T02:38:32.356Z,103434.94
2023-02-11T02:43:37.952Z,103442.94
2023-02-11T02:48:42.400Z,103451.56
2023-02-11T02:53:59.556Z,103450.03
2023-02-11T02:59:21.232Z,103434.72
2023-02-11T03:04:32.140Z,103437.63
2023-02-11T03:09:42.035Z,103422.44
2023-02-11T03:14:46.573Z,103422.44
2023-02-11T03:19:52.898Z,103428.59
2023-02-11T03:24:57.473Z,103420.19
2023-02-11T03:30:07.012Z,103432.28
2023-02-11T03:35:16.638Z,103425.53
2023-02-11T03:40:23.702Z,103418.78
2023-02-11T03:45:28.678Z,103399.31
2023-02-11T03:50:36.273Z,103395.78
2023-02-11T03:55:41.124Z,103388.44
2023-02-11T04:00:45.621Z,103400.97
2023-02-11T04:05:50.434Z,103406.78
2023-02-11T04:10:53.693Z,103394.53
2023-02-11T04:15:56.840Z,103394.66
2023-02-11T04:21:01.281Z,103398.50
2023-02-11T04:26:04.619Z,103387.31
2023-02-11T04:31:07.716Z,103384.22
2023-02-11T04:36:12.271Z,103396.47
2023-02-11T04:41:15.326Z,103391.56
2023-02-11T04:46:18.348Z,103393.38
2023-02-11T04:51:22.680Z,103393.22
2023-02-11T04:56:25.804Z,103399.78
2023-02-11T05:01:29.086Z,103406.97
2023-02-11T05:06:33.549Z,103418.28
2023-02-11T05:11:37.097Z,103422.28
2023-02-11T05:16:40.201Z,103413.22
2023-02-11T05:22:00.199Z,103429.25
2023-02-11T05:27:04.929Z,103420.38
2023-02-11T05:32:09.151Z,103417.31
2023-02-11T05:37:13.845Z,103402.63
2023-02-11T05:42:16.924Z,103401.72
2023-02-11T05:47:19.919Z,103406.06
2023-02-11T05:52:25.028Z,103394.84
2023-02-11T05:57:28.063Z,103379.25
2023-02-11T06:02:31.060Z,103403.34
2023-02-11T06:07:35.492Z,103406.53
2023-02-11T06:12:38.989Z,103407.16
2023-02-11T06:17:42.258Z,103412.53
2023-02-11T06:22:47.020Z,103417.03
2023-02-11T06:27:50.311Z,103404.94
2023-02-11T06:32:53.326Z,103418.84
2023-02-11T06:37:57.844Z,103412.72
2023-02-11T06:43:00.832Z,103421.41
2023-02-11T06:48:04.002Z,103435.63
2023-02-11T06:53:08.408Z,103438.53
2023-02-11T06:58:11.609Z,103434.75
2023-02-11T07:03:14.897Z,103412.38
2023-02-11T07:08:19.879Z,103437.41
2023-02-11T07:13:23.169Z,103438.22
2023-02-11T07:18:26.308Z,103433.78
2023-02-11T07:23:30.808Z,103440.69
2023-02-11T07:28:36.275Z,103437.19
2023-02-11T07:33:39.708Z,103449.59
2023-02-11T07:38:44.593Z,103446.38
2023-02-11T07:43:47.738Z,103467.88
2023-02-11T07:48:50.899Z,103472.28
2023-02-11T07:53:56.404Z,103474.91
2023-02-11T07:59:03.289Z,103483.81
2023-02-11T08:04:06.628Z,103476.75
2023-02-11T08:09:15.920Z,103486.56
2023-02-11T08:14:18.936Z,103482.59
2023-02-11T08:19:21.943Z,103494.84
2023-02-11T08:24:26.453Z,103500.97
2023-02-11T08:29:29.806Z,103508.47
2023-02-11T08:34:32.955Z,103486.22
2023-02-11T08:39:37.408Z,103497.59
2023-02-11T08:44:41.119Z,103504.78
2023-02-11T08:49:44.423Z,103509.81
2023-02-11T08:54:48.842Z,103518.88
2023-02-11T08:59:51.844Z,103509.09
2023-02-11T09:04:54.845Z,103519.03
2023-02-11T09:09:59.267Z,103518.94
2023-02-11T09:15:02.554Z,103515.94
2023-02-11T09:20:06.698Z,103517.31
2023-02-11T09:25:12.417Z,103530.16
2023-02-11T09:30:15.768Z,103525.53
2023-02-11T09:35:19.037Z,103532.09
2023-02-11T09:40:24.138Z,103531.41
2023-02-11T09:45:29.750Z,103531.06
2023-02-11T09:50:36.045Z,103544.09
2023-02-11T09:55:43.594Z,103537.69
2023-02-11T10:00:53.757Z,103547.31
2023-02-11T10:06:20.763Z,103547.69
2023-02-11T10:11:32.777Z,103551.47
2023-02-11T10:16:53.641Z,103564.72
2023-02-11T10:22:06.098Z,103563.78
2023-02-11T10:27:17.785Z,103569.88
2023-02-11T10:32:30.853Z,103586.69
2023-02-11T10:37:33.817Z,103589.69
2023-02-11T10:42:38.382Z,103601.25
2023-02-11T10:47:42.493Z,103608.09
2023-02-11T10:52:45.632Z,103601.69
2023-02-11T10:57:56.652Z,103618.38
2023-02-11T11:03:01.962Z,103612.97
2023-02-11T11:08:07.330Z,103609.53
2023-02-11T11:13:34.436Z,103599.88
2023-02-11T11:18:38.015Z,103611.31
2023-02-11T11:23:41.686Z,103606.84
2023-02-11T11:28:57.744Z,103621.03
2023-02-11T11:34:05.660Z,103623.66
2023-02-11T11:39:21.558Z,103621.03
2023-02-11T11:44:30.131Z,103625.53
2023-02-11T11:49:37.829Z,103628.91
2023-02-11T11:54:44.613Z,103620.78
2023-02-11T11:59:50.384Z,103619.59
2023-02-11T12:05:04.022Z,103628.00
2023-02-11T12:10:32.291Z,103613.03
2023-02-11T12:15:45.526Z,103617.22
2023-02-11T12:21:14.402Z,103609.13
2023-02-11T12:26:20.660Z,103602.63
2023-02-11T12:31:33.460Z,103604.19
2023-02-11T12:36:54.467Z,103592.06
2023-02-11T12:42:31.275Z,103590.44
2023-02-11T12:47:46.766Z,103587.59
2023-02-11T12:53:21.492Z,103590.28
2023-02-11T12:58:42.892Z,103588.69
2023-02-11T13:03:55.258Z,103592.50
2023-02-11T13:09:02.676Z,103597.00
2023-02-11T13:14:09.356Z,103587.22
2023-02-11T13:19:24.196Z,103575.91
2023-02-11T13:24:35.404Z,103564.72
2023-02-11T13:30:04.447Z,103562.03
2023-02-11T13:35:29.382Z,103569.69
2023-02-11T13:40:35.479Z,103564.72
2023-02-11T13:45:44.345Z,103577.13
2023-02-11T13:50:51.994Z,103566.28
2023-02-11T13:56:11.394Z,103574.84
2023-02-11T14:01:43.622Z,103576.22
2023-02-11T14:07:39.657Z,103573.03
2023-02-11T14:12:42.660Z,103574.47
2023-02-11T14:17:47.032Z,103572.16
2023-02-11T14:22:53.127Z,103565.84
2023-02-11T14:28:02.215Z,103574.72
2023-02-11T14:33:47.622Z,103575.72
2023-02-11T14:39:02.792Z,103589.94
2023-02-11T14:44:13.938Z,103596.75
2023-02-11T14:49:27.091Z,103583.06
2023-02-11T14:54:31.088Z,103588.38
2023-02-11T14:59:34.412Z,103594.81
2023-02-11T15:04:40.475Z,103593.63
2023-02-11T15:09:46.550Z,103591.00
2023-02-11T15:14:55.247Z,103595.72
2023-02-11T15:20:03.127Z,103601.41
2023-02-11T15:25:12.152Z,103603.50
2023-02-11T15:30:30.224Z,103612.09
2023-02-11T15:35:36.860Z,103599.88
2023-02-11T15:40:40.050Z,103611.66
2023-02-11T15:45:46.054Z,103616.91
2023-02-11T15:50:55.487Z,103626.97
2023-02-11T15:56:09.771Z,103632.22
2023-02-11T16:01:13.628Z,103632.63
2023-02-11T16:06:20.528Z,103630.41
2023-02-11T16:11:27.504Z,103626.97
2023-02-11T16:16:34.722Z,103625.41
2023-02-11T16:21:46.166Z,103621.66
2023-02-11T16:26:51.536Z,103631.53
2023-02-11T16:32:05.587Z,103635.22
2023-02-11T16:37:10.084Z,103637.59
2023-02-11T16:42:14.238Z,103644.00
2023-02-11T16:47:24.000Z,103646.25
2023-02-11T16:52:30.622Z,103625.91
2023-02-11T16:57:33.829Z,103626.28
2023-02-11T17:02:39.046Z,103637.06
2023-02-11T17:07:43.501Z,103645.72
2023-02-11T17:12:46.714Z,103656.59
2023-02-11T17:17:49.838Z,103675.34
2023-02-11T17:22:54.411Z,103662.34
2023-02-11T17:27:57.500Z,103675.19
2023-02-11T17:33:00.632Z,103678.34
2023-02-11T17:38:05.165Z,103676.50
2023-02-11T17:43:08.230Z,103695.63
2023-02-11T17:48:11.697Z,103697.84
2023-02-11T17:53:16.187Z,103692.81
2023-02-11T17:58:19.477Z,103688.47
2023-02-11T18:03:22.503Z,103689.63
2023-02-11T18:08:27.018Z,103697.47
2023-02-11T18:13:30.822Z,103702.44
2023-02-11T18:18:33.872Z,103710.47
2023-02-11T18:23:38.216Z,103711.38
2023-02-11T18:28:45.207Z,103719.91
2023-02-11T18:33:49.087Z,103722.84
2023-02-11T18:38:54.427Z,103726.25
2023-02-11T18:44:03.026Z,103731.19
2023-02-11T18:49:06.323Z,103732.78
2023-02-11T18:54:10.707Z,103736.16
2023-02-11T18:59:13.997Z,103747.69
2023-02-11T19:04:20.045Z,103745.06
2023-02-11T19:09:24.551Z,103745.72
2023-02-11T19:14:29.623Z,103752.53
2023-02-11T19:19:34.750Z,103746.34
2023-02-11T19:24:39.849Z,103743.31
2023-02-11T19:29:43.064Z,103749.22
2023-02-11T19:34:46.484Z,103742.63
2023-02-11T19:39:50.899Z,103748.41
2023-02-11T19:44:54.119Z,103743.03
2023-02-11T19:49:57.148Z,103754.44
2023-02-11T19:55:01.820Z,103759.88
2023-02-11T20:00:05.746Z,103780.84
2023-02-11T20:05:14.783Z,103783.75
2023-02-11T20:10:19.703Z,103775.19
2023-02-11T20:15:22.785Z,103763.72
2023-02-11T20:20:25.844Z,103791.84
2023-02-11T20:25:30.167Z,103788.28
2023-02-11T20:30:33.282Z,103799.41
2023-02-11T20:35:36.370Z,103783.59
2023-02-11T20:40:40.891Z,103802.84
2023-02-11T20:45:44.374Z,103809.78
2023-02-11T20:50:48.378Z,103831.38
2023-02-11T20:55:53.238Z,103827.69
2023-02-11T21:00:56.412Z,103836.94
2023-02-11T21:05:59.526Z,103846.06
2023-02-11T21:11:04.125Z,103854.97
2023-02-11T21:16:08.163Z,103853.47
2023-02-11T21:21:11.580Z,103852.38
2023-02-11T21:26:17.186Z,103843.03
2023-02-11T21:31:22.871Z,103853.50
2023-02-11T21:36:26.711Z,103855.94
2023-02-11T21:41:31.365Z,103867.53
2023-02-11T21:46:34.410Z,103850.63
2023-02-11T21:51:37.609Z,103871.38
2023-02-11T21:56:42.020Z,103878.34
2023-02-11T22:01:46.444Z,103881.06
2023-02-11T22:06:49.607Z,103880.78
2023-02-11T22:11:54.006Z,103883.28
2023-02-11T22:16:57.263Z,103886.66
2023-02-11T22:22:00.496Z,103889.91
2023-02-11T22:27:05.131Z,103875.91
2023-02-11T22:32:08.304Z,103876.84
2023-02-11T22:37:11.417Z,103877.47
2023-02-11T22:42:15.931Z,103878.53
2023-02-11T22:47:18.946Z,103871.94
2023-02-11T22:52:22.468Z,103880.84
2023-02-11T22:57:26.927Z,103875.31
2023-02-11T23:02:30.277Z,103881.47
2023-02-11T23:07:33.315Z,103881.34
2023-02-11T23:12:37.905Z,103874.75
2023-02-11T23:17:40.906Z,103894.25
2023-02-11T23:22:44.016Z,103893.34
2023-02-11T23:27:48.412Z,103893.34
2023-02-11T23:32:51.983Z,103891.50
2023-02-11T23:37:55.258Z,103892.25
2023-02-11T23:42:59.747Z,103889.03
2023-02-11T23:48:02.896Z,103886.44
2023-02-11T23:53:05.943Z,103886.72
2023-02-11T23:58:11.606Z,103880.44
